createdAt,value
2023-03-08T00:01:12.342Z,33.72
2023-03-08T00:03:39.523Z,35.35
2023-03-08T00:06:12.152Z,32.45
2023-03-08T00:08:39.015Z,31.20
2023-03-08T00:11:10.638Z,31.02
2023-03-08T00:13:37.332Z,31.20
2023-03-08T00:16:06.748Z,28.80
2023-03-08T00:18:35.371Z,30.00
2023-03-08T00:21:10.260Z,30.27
2023-03-08T00:23:36.921Z,30.88
2023-03-08T00:26:03.950Z,31.63
2023-03-08T00:28:31.075Z,30.35
2023-03-08T00:31:05.028Z,30.23
2023-03-08T00:33:33.117Z,30.15
2023-03-08T00:36:03.034Z,30.23
2023-03-08T00:38:31.660Z,30.63
2023-03-08T00:40:58.776Z,29.63
2023-03-08T00:43:26.124Z,30.67
2023-03-08T00:45:53.227Z,30.20
2023-03-08T00:48:20.625Z,31.00
2023-03-08T00:50:47.696Z,27.63
2023-03-08T00:53:14.291Z,32.80
2023-03-08T00:55:49.333Z,34.90
2023-03-08T00:58:16.153Z,35.08
2023-03-08T01:00:43.097Z,34.90
2023-03-08T01:03:09.696Z,28.70
2023-03-08T01:05:44.827Z,28.15
2023-03-08T01:08:12.509Z,28.38
2023-03-08T01:10:39.339Z,28.80
2023-03-08T01:13:07.790Z,28.73
2023-03-08T01:15:38.209Z,27.58
2023-03-08T01:18:05.796Z,31.88
2023-03-08T01:20:32.955Z,29.85
2023-03-08T01:22:59.529Z,32.58
2023-03-08T01:25:28.605Z,32.25
2023-03-08T01:27:55.221Z,31.58
2023-03-08T01:30:22.261Z,31.73
2023-03-08T01:32:48.852Z,35.50
2023-03-08T01:35:15.568Z,32.83
2023-03-08T01:37:42.208Z,34.83
2023-03-08T01:40:09.653Z,34.10
2023-03-08T01:42:38.920Z,33.97
2023-03-08T01:45:26.718Z,34.00
2023-03-08T01:47:53.308Z,34.72
2023-03-08T01:50:20.427Z,32.67
2023-03-08T01:52:52.543Z,32.35
2023-03-08T01:55:20.026Z,32.70
2023-03-08T01:57:51.169Z,32.80
2023-03-08T02:00:24.176Z,32.40
2023-03-08T02:03:16.737Z,30.85
2023-03-08T02:05:44.460Z,35.97
2023-03-08T02:08:11.129Z,38.80
2023-03-08T02:10:38.664Z,44.60
2023-03-08T02:13:07.501Z,48.78
2023-03-08T02:15:34.471Z,47.75
2023-03-08T02:18:01.086Z,44.97
2023-03-08T02:20:34.145Z,46.67
2023-03-08T02:23:11.670Z,47.58
2023-03-08T02:25:38.888Z,44.13
2023-03-08T02:28:06.616Z,42.92
2023-03-08T02:30:36.983Z,42.15
2023-03-08T02:33:04.074Z,42.53
2023-03-08T02:35:30.703Z,36.92
2023-03-08T02:37:57.240Z,38.38
2023-03-08T02:40:23.915Z,37.83
2023-03-08T02:42:53.181Z,37.85
2023-03-08T02:45:19.945Z,37.20
2023-03-08T02:47:46.514Z,38.08
2023-03-08T02:50:13.102Z,37.55
2023-03-08T02:52:39.677Z,36.22
2023-03-08T02:55:06.946Z,37.33
2023-03-08T02:57:33.587Z,35.35
2023-03-08T03:00:00.142Z,38.67
2023-03-08T03:02:27.160Z,38.08
2023-03-08T03:04:53.747Z,36.50
2023-03-08T03:07:20.324Z,37.70
2023-03-08T03:09:46.936Z,36.78
2023-03-08T03:12:13.525Z,35.80
2023-03-08T03:14:40.224Z,36.95
2023-03-08T03:17:06.781Z,34.25
2023-03-08T03:19:33.413Z,37.47
2023-03-08T03:21:59.997Z,36.88
2023-03-08T03:24:26.635Z,36.42
2023-03-08T03:26:53.525Z,36.22
2023-03-08T03:29:20.405Z,36.65
2023-03-08T03:31:48.600Z,36.17
2023-03-08T03:34:15.324Z,34.85
2023-03-08T03:36:41.952Z,35.40
2023-03-08T03:39:08.530Z,34.70
2023-03-08T03:41:35.108Z,32.85
2023-03-08T03:44:01.660Z,33.10
2023-03-08T03:46:28.429Z,35.72
2023-03-08T03:48:55.141Z,32.47
2023-03-08T03:51:22.615Z,31.90
2023-03-08T03:53:49.855Z,32.67
2023-03-08T03:56:19.152Z,31.20
2023-03-08T03:58:46.149Z,29.73
2023-03-08T04:01:24.891Z,30.92
2023-03-08T04:03:52.803Z,30.58
2023-03-08T04:06:27.462Z,30.40
2023-03-08T04:08:55.999Z,30.48
2023-03-08T04:11:26.603Z,30.83
2023-03-08T04:13:53.494Z,29.60
2023-03-08T04:16:28.665Z,30.80
2023-03-08T04:18:58.738Z,30.25
2023-03-08T04:21:25.866Z,29.75
2023-03-08T04:23:52.686Z,30.90
2023-03-08T04:26:20.185Z,31.63
2023-03-08T04:28:46.945Z,33.17
2023-03-08T04:31:19.730Z,33.38
2023-03-08T04:33:47.388Z,33.53
2023-03-08T04:36:15.726Z,34.92
2023-03-08T04:38:43.017Z,34.40
2023-03-08T04:41:12.595Z,34.55
2023-03-08T04:43:51.254Z,34.58
2023-03-08T04:46:20.192Z,34.75
2023-03-08T04:48:47.187Z,34.10
2023-03-08T04:51:16.078Z,34.25
2023-03-08T04:53:44.620Z,33.17
2023-03-08T04:56:13.050Z,38.05
2023-03-08T04:58:39.825Z,33.05
2023-03-08T05:01:15.270Z,32.95
2023-03-08T05:03:42.184Z,34.20
2023-03-08T05:06:10.042Z,34.25
2023-03-08T05:08:36.705Z,33.75
2023-03-08T05:11:04.771Z,33.95
2023-03-08T05:13:35.478Z,33.97
2023-03-08T05:16:03.706Z,33.72
2023-03-08T05:18:30.394Z,34.70
2023-03-08T05:21:02.668Z,35.22
2023-03-08T05:23:29.530Z,37.33
2023-03-08T05:26:00.709Z,33.83
2023-03-08T05:28:29.766Z,33.78
2023-03-08T05:31:07.036Z,32.67
2023-03-08T05:33:34.792Z,35.70
2023-03-08T05:36:01.518Z,34.47
2023-03-08T05:38:28.903Z,35.03
2023-03-08T05:40:55.765Z,34.20
2023-03-08T05:43:22.354Z,36.53
2023-03-08T05:46:11.272Z,38.75
2023-03-08T05:48:38.105Z,37.17
2023-03-08T05:51:09.882Z,39.70
2023-03-08T05:53:37.116Z,37.63
2023-03-08T05:56:23.462Z,37.33
2023-03-08T05:58:50.962Z,37.60
2023-03-08T06:01:22.813Z,37.13
2023-03-08T06:03:51.621Z,33.53
2023-03-08T06:06:20.338Z,32.20
2023-03-08T06:08:47.340Z,30.73
2023-03-08T06:11:15.717Z,29.25
2023-03-08T06:13:42.318Z,31.20
2023-03-08T06:16:09.360Z,29.45
2023-03-08T06:18:37.452Z,29.63
2023-03-08T06:21:06.620Z,29.17
2023-03-08T06:23:35.209Z,29.75
2023-03-08T06:26:02.452Z,29.13
2023-03-08T06:28:29.656Z,28.23
2023-03-08T06:30:56.656Z,30.70
2023-03-08T06:33:26.045Z,29.30
2023-03-08T06:36:07.185Z,29.70
2023-03-08T06:38:36.681Z,30.73
2023-03-08T06:41:04.686Z,29.27
2023-03-08T06:43:31.728Z,31.33
2023-03-08T06:45:58.564Z,30.50
2023-03-08T06:48:25.117Z,27.90
2023-03-08T06:50:51.652Z,30.00
2023-03-08T06:53:18.256Z,30.45
2023-03-08T06:55:44.860Z,31.35
2023-03-08T06:58:11.454Z,32.25
2023-03-08T07:00:38.068Z,31.20
2023-03-08T07:03:04.985Z,28.45
2023-03-08T07:05:31.718Z,27.63
2023-03-08T07:07:58.645Z,27.83
2023-03-08T07:10:25.192Z,26.25
2023-03-08T07:12:51.804Z,26.33
2023-03-08T07:15:21.407Z,26.77
2023-03-08T07:17:50.431Z,28.48
2023-03-08T07:20:19.921Z,25.92
2023-03-08T07:22:47.021Z,24.45
2023-03-08T07:25:15.627Z,25.65
2023-03-08T07:27:42.890Z,24.83
2023-03-08T07:30:11.809Z,26.73
2023-03-08T07:32:42.973Z,25.83
2023-03-08T07:35:11.894Z,25.50
2023-03-08T07:37:38.800Z,27.08
2023-03-08T07:40:06.162Z,25.92
2023-03-08T07:42:32.848Z,23.67
2023-03-08T07:44:59.477Z,24.92
2023-03-08T07:47:26.063Z,25.30
2023-03-08T07:49:52.689Z,24.23
2023-03-08T07:52:19.309Z,24.13
2023-03-08T07:54:45.920Z,24.65
2023-03-08T07:57:15.866Z,23.83
2023-03-08T07:59:42.708Z,25.40
2023-03-08T08:02:13.772Z,26.17
2023-03-08T08:04:41.128Z,25.00
2023-03-08T08:07:12.098Z,25.30
2023-03-08T08:09:38.785Z,25.40
2023-03-08T08:12:05.925Z,24.70
2023-03-08T08:14:32.699Z,23.58
2023-03-08T08:16:59.299Z,24.48
2023-03-08T08:19:26.036Z,24.00
2023-03-08T08:21:52.698Z,23.55
2023-03-08T08:24:19.350Z,25.65
2023-03-08T08:26:45.915Z,22.80
2023-03-08T08:29:13.189Z,22.88
2023-03-08T08:31:39.870Z,23.67
2023-03-08T08:34:06.574Z,23.05
2023-03-08T08:36:33.158Z,23.75
2023-03-08T08:38:59.720Z,23.02
2023-03-08T08:41:28.040Z,22.40
2023-03-08T08:43:58.943Z,23.02
2023-03-08T08:46:27.880Z,21.60
2023-03-08T08:48:55.829Z,21.80
2023-03-08T08:51:22.692Z,21.25
2023-03-08T08:53:49.314Z,22.42
2023-03-08T08:56:29.069Z,22.58
2023-03-08T08:59:01.623Z,23.65
2023-03-08T09:01:33.380Z,21.48
2023-03-08T09:04:00.234Z,22.83
2023-03-08T09:06:28.104Z,21.73
2023-03-08T09:08:57.036Z,21.00
2023-03-08T09:11:25.180Z,21.60
2023-03-08T09:13:52.494Z,21.63
2023-03-08T09:16:26.567Z,21.80
2023-03-08T09:18:53.410Z,22.52
2023-03-08T09:21:20.284Z,24.17
2023-03-08T09:23:46.947Z,22.98
2023-03-08T09:26:13.717Z,22.25
2023-03-08T09:28:40.604Z,21.50
2023-03-08T09:31:15.170Z,23.45
2023-03-08T09:36:21.453Z,24.33
2023-03-08T09:38:49.525Z,25.10
2023-03-08T09:41:37.141Z,25.50
2023-03-08T09:44:28.256Z,26.65
2023-03-08T09:47:13.748Z,28.25
2023-03-08T09:49:43.721Z,23.15
2023-03-08T09:52:22.555Z,25.70
2023-03-08T09:54:51.230Z,23.95
2023-03-08T09:57:25.224Z,24.85
2023-03-08T09:59:57.664Z,25.05
2023-03-08T10:02:30.311Z,24.17
2023-03-08T10:05:23.864Z,26.40
2023-03-08T10:08:01.056Z,27.08
2023-03-08T10:10:40.650Z,29.00
2023-03-08T10:13:32.638Z,29.45
2023-03-08T10:16:16.439Z,30.88
2023-03-08T10:18:51.507Z,30.33
2023-03-08T10:21:22.570Z,29.10
2023-03-08T10:24:02.424Z,32.25
2023-03-08T10:26:31.548Z,31.67
2023-03-08T10:28:58.142Z,29.85
2023-03-08T10:31:28.191Z,31.17
2023-03-08T10:34:06.955Z,30.75
2023-03-08T10:36:33.521Z,31.25
2023-03-08T10:39:09.704Z,30.33
2023-03-08T10:41:52.950Z,31.02
2023-03-08T10:44:44.713Z,33.55
2023-03-08T10:47:31.395Z,32.67
2023-03-08T10:50:19.951Z,31.60
2023-03-08T10:52:48.560Z,30.80
2023-03-08T10:55:17.944Z,27.63
2023-03-08T10:57:50.256Z,28.05
2023-03-08T11:00:20.047Z,27.17
2023-03-08T11:02:48.308Z,25.77
2023-03-08T11:05:26.464Z,26.10
2023-03-08T11:07:55.116Z,24.33
2023-03-08T11:10:25.147Z,24.42
2023-03-08T11:13:17.998Z,22.92
2023-03-08T11:15:52.893Z,24.23
2023-03-08T11:18:44.309Z,22.35
2023-03-08T11:21:20.082Z,23.58
2023-03-08T11:24:13.846Z,22.73
2023-03-08T11:26:44.682Z,24.25
2023-03-08T11:29:31.156Z,24.23
2023-03-08T11:32:34.899Z,22.83
2023-03-08T11:35:35.750Z,22.88
2023-03-08T11:38:21.121Z,23.23
2023-03-08T11:41:05.967Z,24.10
2023-03-08T11:44:24.080Z,24.30
2023-03-08T11:47:08.605Z,23.95
2023-03-08T11:50:06.131Z,25.38
2023-03-08T11:53:17.743Z,24.27
2023-03-08T11:56:09.243Z,24.42
2023-03-08T11:58:46.610Z,24.95
2023-03-08T12:01:32.633Z,24.35
2023-03-08T12:04:06.616Z,24.10
2023-03-08T12:06:41.876Z,24.33
2023-03-08T12:09:34.488Z,24.13
2023-03-08T12:12:14.690Z,23.65
2023-03-08T12:15:07.684Z,24.63
2023-03-08T12:17:44.299Z,23.63
2023-03-08T12:20:20.142Z,24.33
2023-03-08T12:23:04.289Z,23.95
2023-03-08T12:25:34.820Z,23.50
2023-03-08T12:28:24.426Z,22.80
2023-03-08T12:31:24.797Z,23.30
2023-03-08T12:33:54.248Z,22.60
2023-03-08T12:36:24.691Z,23.50
2023-03-08T12:38:56.653Z,22.40
2023-03-08T12:41:28.861Z,23.85
2023-03-08T12:44:07.186Z,23.60
2023-03-08T12:47:01.915Z,23.42
2023-03-08T12:49:36.594Z,23.98
2023-03-08T12:52:23.856Z,23.73
2023-03-08T12:55:34.883Z,24.20
2023-03-08T12:58:04.457Z,22.98
2023-03-08T13:00:35.263Z,24.48
2023-03-08T13:03:13.198Z,25.05
2023-03-08T13:05:41.755Z,23.45
2023-03-08T13:08:14.397Z,23.33
2023-03-08T13:10:58.545Z,21.48
2023-03-08T13:13:43.492Z,23.48
2023-03-08T13:16:16.107Z,23.17
2023-03-08T13:18:44.979Z,23.20
2023-03-08T13:21:25.958Z,25.45
2023-03-08T13:24:34.329Z,25.15
2023-03-08T13:27:25.126Z,24.98
2023-03-08T13:29:51.930Z,25.23
2023-03-08T13:32:21.386Z,24.42
2023-03-08T13:35:03.586Z,24.15
2023-03-08T13:37:30.818Z,24.17
2023-03-08T13:40:00.019Z,23.92
2023-03-08T13:42:28.815Z,22.08
2023-03-08T13:45:18.306Z,23.05
2023-03-08T13:47:47.220Z,23.35
2023-03-08T13:50:35.294Z,21.98
2023-03-08T13:53:03.947Z,23.17
2023-03-08T13:55:44.285Z,22.33
2023-03-08T13:58:22.188Z,24.52
2023-03-08T14:01:00.894Z,23.30
2023-03-08T14:03:30.739Z,22.20
2023-03-08T14:05:58.150Z,23.85
2023-03-08T14:08:26.862Z,23.77
2023-03-08T14:11:05.505Z,22.80
2023-03-08T14:13:38.274Z,23.33
2023-03-08T14:16:09.514Z,22.63
2023-03-08T14:18:38.655Z,22.35
2023-03-08T14:21:42.446Z,23.45
2023-03-08T14:24:20.282Z,24.65
2023-03-08T14:27:22.067Z,23.13
2023-03-08T14:29:48.792Z,25.75
2023-03-08T14:32:15.474Z,24.15
2023-03-08T14:34:45.884Z,26.95
2023-03-08T14:37:12.420Z,24.42
2023-03-08T14:39:44.314Z,23.52
2023-03-08T14:42:24.427Z,23.10
2023-03-08T14:44:52.765Z,24.38
2023-03-08T14:47:23.790Z,23.98
2023-03-08T14:50:01.498Z,24.58
2023-03-08T14:52:30.721Z,23.80
2023-03-08T14:54:57.284Z,23.35
2023-03-08T14:57:26.708Z,24.77
2023-03-08T14:59:54.001Z,26.10
2023-03-08T15:02:20.708Z,27.20
2023-03-08T15:04:47.328Z,24.42
2023-03-08T15:07:20.407Z,25.45
2023-03-08T15:09:51.566Z,23.85
2023-03-08T15:12:18.422Z,23.77
2023-03-08T15:14:45.164Z,26.45
2023-03-08T15:17:11.813Z,24.58
2023-03-08T15:19:38.361Z,23.15
2023-03-08T15:22:06.289Z,23.33
2023-03-08T15:24:32.958Z,22.80
2023-03-08T15:26:59.510Z,23.30
2023-03-08T15:29:28.814Z,23.33
2023-03-08T15:31:56.355Z,23.52
2023-03-08T15:34:23.297Z,22.92
2023-03-08T15:36:50.937Z,24.75
2023-03-08T15:39:17.777Z,24.10
2023-03-08T15:41:44.353Z,25.60
2023-03-08T15:44:11.089Z,24.77
2023-03-08T15:46:38.029Z,25.83
2023-03-08T15:49:05.594Z,29.27
2023-03-08T15:51:36.681Z,29.05
2023-03-08T15:54:05.141Z,28.88
2023-03-08T15:56:31.825Z,29.02
2023-03-08T15:58:58.431Z,29.30
2023-03-08T16:01:26.944Z,30.45
2023-03-08T16:03:57.076Z,29.08
2023-03-08T16:06:24.616Z,27.25
2023-03-08T16:08:51.349Z,24.92
2023-03-08T16:11:22.241Z,27.10
2023-03-08T16:13:51.204Z,27.02
2023-03-08T16:16:18.968Z,26.27
2023-03-08T16:18:45.771Z,24.10
2023-03-08T16:21:12.481Z,29.55
2023-03-08T16:23:41.679Z,26.73
2023-03-08T16:26:17.184Z,32.35
2023-03-08T16:28:47.057Z,33.33
2023-03-08T16:31:14.854Z,38.80
2023-03-08T16:33:41.564Z,44.05
2023-03-08T16:36:08.298Z,41.42
2023-03-08T16:38:34.903Z,41.88
2023-03-08T16:41:12.306Z,42.35
2023-03-08T16:43:46.408Z,43.10
2023-03-08T16:46:19.443Z,39.78
2023-03-08T16:48:49.362Z,39.58
2023-03-08T16:51:19.026Z,36.80
2023-03-08T16:53:45.946Z,34.83
2023-03-08T16:56:24.536Z,34.83
2023-03-08T16:58:51.995Z,33.17
2023-03-08T17:01:19.729Z,31.10
2023-03-08T17:03:46.347Z,30.85
2023-03-08T17:06:14.358Z,30.02
2023-03-08T17:08:41.416Z,29.38
2023-03-08T17:11:20.217Z,28.33
2023-03-08T17:13:51.332Z,27.05
2023-03-08T17:16:24.053Z,28.20
2023-03-08T17:18:51.629Z,29.80
2023-03-08T17:21:19.788Z,27.83
2023-03-08T17:23:46.637Z,27.10
2023-03-08T17:26:14.743Z,27.88
2023-03-08T17:28:41.758Z,25.92
2023-03-08T17:31:11.048Z,25.60
2023-03-08T17:33:38.338Z,25.17
2023-03-08T17:36:06.847Z,25.27
2023-03-08T17:38:34.208Z,24.05
2023-03-08T17:41:05.567Z,25.63
2023-03-08T17:43:32.186Z,24.52
2023-03-08T17:45:59.629Z,24.35
2023-03-08T17:48:26.266Z,26.90
2023-03-08T17:50:52.933Z,27.15
2023-03-08T17:53:19.845Z,27.23
2023-03-08T17:55:46.471Z,28.15
2023-03-08T17:58:13.050Z,29.00
2023-03-08T18:00:39.620Z,27.73
2023-03-08T18:03:06.209Z,27.42
2023-03-08T18:05:32.858Z,25.77
2023-03-08T18:07:59.433Z,27.80
2023-03-08T18:10:26.016Z,25.15
2023-03-08T18:12:52.749Z,27.75
2023-03-08T18:15:19.305Z,24.10
2023-03-08T18:17:46.383Z,23.60
2023-03-08T18:20:13.199Z,35.10
2023-03-08T18:22:40.807Z,39.30
2023-03-08T18:25:07.855Z,40.53
2023-03-08T18:27:34.381Z,35.97
2023-03-08T18:30:00.925Z,34.78
2023-03-08T18:32:28.716Z,57.83
2023-03-08T18:34:55.348Z,55.35
2023-03-08T18:37:23.277Z,52.60
2023-03-08T18:39:54.552Z,61.97
2023-03-08T18:42:21.217Z,51.28
2023-03-08T18:44:48.169Z,75.00
2023-03-08T18:47:15.113Z,68.07
2023-03-08T18:49:43.458Z,73.63
2023-03-08T18:52:11.089Z,67.55
2023-03-08T18:54:41.326Z,77.60
2023-03-08T18:57:08.013Z,76.43
2023-03-08T18:59:35.091Z,82.70
2023-03-08T19:02:01.782Z,82.80
2023-03-08T19:04:28.458Z,77.70
2023-03-08T19:06:55.050Z,80.13
2023-03-08T19:09:24.392Z,87.38
2023-03-08T19:11:51.071Z,76.82
2023-03-08T19:14:17.840Z,80.43
2023-03-08T19:16:44.615Z,82.60
2023-03-08T19:19:14.525Z,78.72
2023-03-08T19:21:44.050Z,80.85
2023-03-08T19:24:18.606Z,91.40
2023-03-08T19:29:17.531Z,83.90
2023-03-08T19:31:55.463Z,86.03
2023-03-08T19:34:35.365Z,92.25
2023-03-08T19:37:02.664Z,94.38
2023-03-08T19:39:31.660Z,91.95
2023-03-08T19:42:00.749Z,94.57
2023-03-08T19:44:28.099Z,95.22
2023-03-08T19:46:55.315Z,95.20
2023-03-08T19:49:25.073Z,94.82
2023-03-08T19:51:54.690Z,98.07
2023-03-08T19:54:23.381Z,93.63
2023-03-08T19:56:51.393Z,92.70
2023-03-08T19:59:18.068Z,92.78
2023-03-08T20:01:45.146Z,86.72
2023-03-08T20:04:12.575Z,88.05
2023-03-08T20:06:43.537Z,80.03
2023-03-08T20:09:13.956Z,77.93
2023-03-08T20:11:41.138Z,85.30
2023-03-08T20:14:08.504Z,81.60
2023-03-08T20:16:35.899Z,67.93
2023-03-08T20:19:02.589Z,61.33
2023-03-08T20:21:30.957Z,45.47
2023-03-08T20:23:59.573Z,30.17
2023-03-08T20:26:31.788Z,41.55
2023-03-08T20:28:59.893Z,39.05
2023-03-08T20:31:28.285Z,36.03
2023-03-08T20:33:55.185Z,33.28
2023-03-08T20:36:21.831Z,34.50
2023-03-08T20:38:48.476Z,31.45
2023-03-08T20:41:20.820Z,31.38
2023-03-08T20:43:49.402Z,32.20
2023-03-08T20:46:19.123Z,33.40
2023-03-08T20:48:46.313Z,33.22
2023-03-08T20:51:16.219Z,31.83
2023-03-08T20:53:43.678Z,34.20
2023-03-08T20:56:13.541Z,35.70
2023-03-08T20:58:40.634Z,35.95
2023-03-08T21:01:15.247Z,37.53
2023-03-08T21:06:13.452Z,32.30
2023-03-08T21:08:40.748Z,30.83
2023-03-08T21:11:07.929Z,33.40
2023-03-08T21:13:34.630Z,35.95
2023-03-08T21:16:06.352Z,32.78
2023-03-08T21:18:33.015Z,34.40
2023-03-08T21:20:59.912Z,34.40
2023-03-08T21:23:27.130Z,34.10
2023-03-08T21:25:54.046Z,34.85
2023-03-08T21:28:21.695Z,33.30
2023-03-08T21:30:49.049Z,32.40
2023-03-08T21:33:16.033Z,35.28
2023-03-08T21:35:42.865Z,32.92
2023-03-08T21:38:09.973Z,32.22
2023-03-08T21:40:38.698Z,32.08
2023-03-08T21:43:05.611Z,32.53
2023-03-08T21:45:32.527Z,34.58
2023-03-08T21:47:59.677Z,32.17
2023-03-08T21:50:26.740Z,31.35
2023-03-08T21:52:53.302Z,31.77
2023-03-08T21:55:19.869Z,31.27
2023-03-08T21:57:47.401Z,30.33
2023-03-08T22:00:16.769Z,29.73
2023-03-08T22:02:45.990Z,34.90
2023-03-08T22:05:14.004Z,30.70
2023-03-08T22:07:40.841Z,30.35
2023-03-08T22:10:09.840Z,29.38
2023-03-08T22:12:36.588Z,29.88
2023-03-08T22:15:04.473Z,29.42
2023-03-08T22:17:31.281Z,30.13
2023-03-08T22:19:57.829Z,29.58
2023-03-08T22:22:24.413Z,30.92
2023-03-08T22:24:51.017Z,29.52
2023-03-08T22:27:18.191Z,30.77
2023-03-08T22:29:44.745Z,30.77
2023-03-08T22:32:11.544Z,29.42
2023-03-08T22:34:38.123Z,32.03
2023-03-08T22:37:06.205Z,29.15
2023-03-08T22:39:32.831Z,29.95
2023-03-08T22:41:59.425Z,29.63
2023-03-08T22:44:26.007Z,30.40
2023-03-08T22:46:52.662Z,30.85
2023-03-08T22:49:19.265Z,30.48
2023-03-08T22:51:45.870Z,31.67
2023-03-08T22:54:16.610Z,30.35
2023-03-08T22:56:43.205Z,28.85
2023-03-08T22:59:10.192Z,29.23
2023-03-08T23:01:37.119Z,30.15
2023-03-08T23:04:05.412Z,29.55
2023-03-08T23:06:33.379Z,28.75
2023-03-08T23:09:04.433Z,28.65
2023-03-08T23:11:31.170Z,29.35
2023-03-08T23:13:57.845Z,27.17
2023-03-08T23:16:24.514Z,27.90
2023-03-08T23:18:52.904Z,28.35
2023-03-08T23:21:21.713Z,28.25
2023-03-08T23:23:48.822Z,28.63
2023-03-08T23:26:24.508Z,29.40
2023-03-08T23:28:51.067Z,29.30
2023-03-08T23:31:19.945Z,29.55
2023-03-08T23:33:47.183Z,30.30
2023-03-08T23:36:15.945Z,30.67
2023-03-08T23:38:43.181Z,32.80
2023-03-08T23:41:11.955Z,31.25
2023-03-08T23:43:38.999Z,32.10
2023-03-08T23:46:14.505Z,31.52
2023-03-08T23:48:41.730Z,30.52
2023-03-08T23:51:11.561Z,33.28
2023-03-08T23:53:38.235Z,35.28
2023-03-08T23:56:05.897Z,34.63
2023-03-08T23:58:33.230Z,37.90
